createdAt,value
2022-11-21T00:03:13.313Z,84.79
2022-11-21T00:08:19.662Z,85.04
2022-11-21T00:13:22.480Z,85.02
2022-11-21T00:18:25.575Z,84.89
2022-11-21T00:23:29.700Z,84.87
2022-11-21T00:28:32.544Z,85.14
2022-11-21T00:33:36.042Z,85.24
2022-11-21T00:38:40.144Z,85.39
2022-11-21T00:43:42.883Z,85.17
2022-11-21T00:48:45.614Z,84.91
2022-11-21T00:53:50.825Z,84.96
2022-11-21T00:58:53.588Z,85.41
2022-11-21T01:03:56.336Z,85.72
2022-11-21T01:09:00.491Z,85.72
2022-11-21T01:14:03.416Z,85.67
2022-11-21T01:19:06.195Z,85.38
2022-11-21T01:24:12.060Z,85.86
2022-11-21T01:29:14.878Z,85.51
2022-11-21T01:34:18.569Z,85.49
2022-11-21T01:39:22.659Z,85.61
2022-11-21T01:44:28.018Z,84.84
2022-11-21T01:49:33.175Z,84.93
2022-11-21T01:54:42.685Z,85.83
2022-11-21T01:59:49.774Z,84.88
2022-11-21T02:04:54.477Z,84.96
2022-11-21T02:10:01.944Z,84.81
2022-11-21T02:15:05.297Z,84.57
2022-11-21T02:20:10.501Z,84.74
2022-11-21T02:25:18.966Z,84.96
2022-11-21T02:30:22.005Z,84.62
2022-11-21T02:35:25.047Z,84.33
2022-11-21T02:40:35.917Z,85.06
2022-11-21T02:45:41.304Z,84.70
2022-11-21T02:50:45.831Z,84.69
2022-11-21T02:55:49.943Z,85.06
2022-11-21T03:00:53.010Z,84.17
2022-11-21T03:05:56.052Z,84.87
2022-11-21T03:11:00.187Z,84.67
2022-11-21T03:16:02.936Z,83.85
2022-11-21T03:21:05.728Z,83.89
2022-11-21T03:26:09.842Z,84.39
2022-11-21T03:31:12.662Z,84.40
2022-11-21T03:36:15.468Z,84.66
2022-11-21T03:41:31.695Z,84.51
2022-11-21T03:46:36.604Z,84.08
2022-11-21T03:51:39.675Z,84.32
2022-11-21T03:56:43.804Z,84.17
2022-11-21T04:01:46.621Z,83.98
2022-11-21T04:06:49.460Z,84.46
2022-11-21T04:11:53.549Z,84.32
2022-11-21T04:16:56.568Z,84.20
2022-11-21T04:21:59.304Z,85.21
2022-11-21T04:27:03.383Z,85.16
2022-11-21T04:32:06.339Z,84.69
2022-11-21T04:37:11.768Z,85.22
2022-11-21T04:42:16.110Z,84.97
2022-11-21T04:47:18.915Z,85.06
2022-11-21T04:52:21.668Z,84.54
2022-11-21T04:57:26.552Z,83.53
2022-11-21T05:02:29.432Z,84.22
2022-11-21T05:07:32.198Z,84.39
2022-11-21T05:12:53.728Z,84.81
2022-11-21T05:17:56.484Z,84.60
2022-11-21T05:22:59.239Z,84.94
2022-11-21T05:28:03.352Z,85.03
2022-11-21T05:33:06.396Z,84.91
2022-11-21T05:38:09.132Z,85.08
2022-11-21T05:43:31.429Z,84.81
2022-11-21T05:48:36.555Z,84.74
2022-11-21T05:53:39.322Z,84.71
2022-11-21T05:58:43.852Z,84.29
2022-11-21T06:03:46.617Z,84.74
2022-11-21T06:08:49.340Z,84.84
2022-11-21T06:13:53.954Z,85.22
2022-11-21T06:18:58.714Z,85.14
2022-11-21T06:24:01.774Z,85.22
2022-11-21T06:29:05.841Z,85.59
2022-11-21T06:34:08.699Z,85.03
2022-11-21T06:39:11.475Z,85.31
2022-11-21T06:44:15.545Z,84.71
2022-11-21T06:49:18.300Z,85.61
2022-11-21T06:54:21.060Z,85.60
2022-11-21T06:59:25.151Z,85.54
2022-11-21T07:04:28.104Z,85.36
2022-11-21T07:09:33.978Z,84.97
2022-11-21T07:14:38.365Z,84.57
2022-11-21T07:19:41.804Z,86.21
2022-11-21T07:24:44.513Z,84.31
2022-11-21T07:29:48.604Z,83.81
2022-11-21T07:34:51.348Z,83.46
2022-11-21T07:39:54.073Z,83.74
2022-11-21T07:44:58.178Z,84.37
2022-11-21T07:50:00.895Z,84.20
2022-11-21T07:55:04.647Z,84.34
2022-11-21T08:00:10.778Z,84.08
2022-11-21T08:05:13.515Z,83.63
2022-11-21T08:10:17.311Z,82.21
2022-11-21T08:15:21.519Z,80.83
2022-11-21T08:20:24.296Z,81.54
2022-11-21T08:25:27.093Z,80.92
2022-11-21T08:30:31.870Z,79.34
2022-11-21T08:35:37.603Z,79.80
2022-11-21T08:40:41.306Z,79.65
2022-11-21T08:45:45.362Z,75.21
2022-11-21T08:50:48.364Z,76.91
2022-11-21T08:55:51.110Z,77.21
2022-11-21T09:00:55.179Z,74.86
2022-11-21T09:05:58.376Z,72.63
2022-11-21T09:11:05.387Z,75.32
2022-11-21T09:16:30.391Z,71.58
2022-11-21T09:21:33.186Z,72.60
2022-11-21T09:26:35.917Z,71.34
2022-11-21T09:31:40.001Z,71.93
2022-11-21T09:36:42.861Z,74.97
2022-11-21T09:41:57.488Z,69.93
2022-11-21T09:47:12.094Z,71.29
2022-11-21T09:52:18.823Z,71.06
2022-11-21T09:57:26.141Z,69.12
2022-11-21T10:02:32.660Z,70.80
2022-11-21T10:07:37.966Z,69.90
2022-11-21T10:12:52.762Z,72.80
2022-11-21T10:18:14.849Z,74.43
2022-11-21T10:23:36.654Z,73.24
2022-11-21T10:28:45.548Z,72.83
2022-11-21T10:33:53.592Z,74.33
2022-11-21T10:39:00.230Z,71.70
2022-11-21T10:44:27.601Z,74.72
2022-11-21T10:49:35.287Z,72.47
2022-11-21T10:55:04.521Z,72.18
2022-11-21T11:00:17.565Z,74.52
2022-11-21T11:05:24.795Z,74.92
2022-11-21T11:10:28.563Z,66.25
2022-11-21T11:15:31.539Z,65.48
2022-11-21T11:20:40.848Z,69.88
2022-11-21T11:25:48.152Z,66.35
2022-11-21T11:30:52.411Z,65.81
2022-11-21T11:36:03.968Z,66.11
2022-11-21T11:41:20.812Z,68.14
2022-11-21T11:47:15.099Z,64.34
2022-11-21T11:52:24.242Z,65.13
2022-11-21T11:57:31.580Z,64.12
2022-11-21T12:02:47.668Z,64.59
2022-11-21T12:13:29.388Z,59.27
2022-11-21T12:18:37.391Z,60.82
2022-11-21T12:23:47.446Z,61.96
2022-11-21T12:29:04.468Z,60.44
2022-11-21T12:34:21.263Z,61.14
2022-11-21T12:39:59.702Z,62.11
2022-11-21T12:45:28.680Z,65.70
2022-11-21T12:51:00.614Z,65.82
2022-11-21T12:56:12.108Z,64.52
2022-11-21T13:01:23.745Z,64.84
2022-11-21T13:06:28.732Z,65.60
2022-11-21T13:11:59.917Z,66.54
2022-11-21T13:17:15.324Z,63.91
2022-11-21T13:22:49.693Z,65.62
2022-11-21T13:27:54.703Z,67.86
2022-11-21T13:32:57.504Z,70.90
2022-11-21T13:38:01.761Z,73.44
2022-11-21T13:43:35.052Z,73.27
2022-11-21T13:49:02.505Z,74.13
2022-11-21T13:54:37.520Z,75.11
2022-11-21T13:59:56.838Z,76.31
2022-11-21T14:05:20.687Z,76.40
2022-11-21T14:10:34.164Z,75.90
2022-11-21T14:15:49.267Z,76.57
2022-11-21T14:20:56.839Z,76.26
2022-11-21T14:26:03.069Z,76.36
2022-11-21T14:31:08.086Z,76.90
2022-11-21T14:36:15.063Z,77.26
2022-11-21T14:41:28.085Z,77.79
2022-11-21T14:46:33.706Z,77.65
2022-11-21T14:51:37.899Z,78.26
2022-11-21T14:56:42.212Z,78.68
2022-11-21T15:01:57.350Z,79.29
2022-11-21T15:07:00.659Z,78.95
2022-11-21T15:12:07.761Z,79.32
2022-11-21T15:17:20.369Z,79.38
2022-11-21T15:22:31.696Z,79.62
2022-11-21T15:27:36.224Z,80.03
2022-11-21T15:33:02.035Z,79.67
2022-11-21T15:38:14.468Z,80.27
2022-11-21T15:43:32.028Z,80.45
2022-11-21T15:48:36.108Z,80.64
2022-11-21T15:53:39.042Z,80.84
2022-11-21T15:58:43.276Z,81.07
2022-11-21T16:03:49.951Z,81.54
2022-11-21T16:08:52.828Z,81.58
2022-11-21T16:13:58.597Z,81.85
2022-11-21T16:19:02.702Z,81.92
2022-11-21T16:24:06.022Z,82.09
2022-11-21T16:29:11.628Z,82.63
2022-11-21T16:34:19.676Z,82.92
2022-11-21T16:39:22.406Z,83.26
2022-11-21T16:44:25.988Z,83.00
2022-11-21T16:49:30.446Z,83.08
2022-11-21T16:54:33.521Z,82.81
2022-11-21T16:59:36.325Z,82.80
2022-11-21T17:04:40.394Z,82.98
2022-11-21T17:09:43.133Z,83.28
2022-11-21T17:14:47.756Z,83.44
2022-11-21T17:19:54.464Z,84.12
2022-11-21T17:24:57.239Z,84.19
2022-11-21T17:30:00.018Z,84.57
2022-11-21T17:35:04.598Z,84.90
2022-11-21T17:40:12.043Z,85.06
2022-11-21T17:45:14.923Z,85.03
2022-11-21T17:50:19.091Z,85.80
2022-11-21T17:55:21.848Z,85.97
2022-11-21T18:00:24.694Z,86.10
2022-11-21T18:05:28.818Z,86.61
2022-11-21T18:10:46.903Z,87.21
2022-11-21T18:15:49.682Z,87.11
2022-11-21T18:20:53.871Z,86.83
2022-11-21T18:25:56.629Z,86.46
2022-11-21T18:31:07.398Z,86.65
2022-11-21T18:36:13.131Z,87.50
2022-11-21T18:41:17.833Z,87.05
2022-11-21T18:46:22.091Z,87.77
2022-11-21T18:51:27.897Z,87.01
2022-11-21T18:56:30.964Z,86.92
2022-11-21T19:01:34.219Z,87.08
2022-11-21T19:06:38.458Z,86.92
2022-11-21T19:11:41.725Z,86.55
2022-11-21T19:16:44.508Z,86.99
2022-11-21T19:21:48.775Z,86.72
2022-11-21T19:26:51.510Z,86.72
2022-11-21T19:31:54.275Z,86.49
2022-11-21T19:36:58.449Z,86.45
2022-11-21T19:42:01.247Z,86.18
2022-11-21T19:47:03.992Z,85.77
2022-11-21T19:52:08.117Z,86.11
2022-11-21T19:57:13.678Z,85.89
2022-11-21T20:02:19.034Z,85.60
2022-11-21T20:07:23.293Z,85.72
2022-11-21T20:12:26.107Z,85.57
2022-11-21T20:17:28.848Z,85.34
2022-11-21T20:22:33.145Z,85.49
2022-11-21T20:27:35.920Z,85.60
2022-11-21T20:32:39.467Z,85.80
2022-11-21T20:37:44.210Z,86.58
2022-11-21T20:42:46.950Z,86.06
2022-11-21T20:47:49.741Z,85.95
2022-11-21T20:53:50.395Z,86.75
2022-11-21T20:58:17.102Z,86.13
2022-11-21T21:03:19.883Z,85.50
2022-11-21T21:08:24.449Z,85.53
2022-11-21T21:13:27.951Z,85.37
2022-11-21T21:18:33.570Z,85.13
2022-11-21T21:23:37.908Z,85.64
2022-11-21T21:28:41.108Z,84.66
2022-11-21T21:33:43.939Z,85.21
2022-11-21T21:38:51.531Z,85.05
2022-11-21T21:43:55.961Z,84.92
2022-11-21T21:48:59.026Z,84.94
2022-11-21T21:54:03.103Z,85.07
2022-11-21T21:59:05.858Z,85.22
2022-11-21T22:04:08.602Z,84.98
2022-11-21T22:09:12.905Z,85.56
2022-11-21T22:14:16.867Z,84.69
2022-11-21T22:19:20.942Z,85.22
2022-11-21T22:24:26.639Z,84.63
2022-11-21T22:29:29.948Z,84.14
2022-11-21T22:34:32.973Z,84.23
2022-11-21T22:39:37.286Z,84.29
2022-11-21T22:44:40.017Z,83.60
2022-11-21T22:49:42.787Z,83.72
2022-11-21T22:54:46.859Z,83.47
2022-11-21T22:59:49.714Z,83.45
2022-11-21T23:04:52.446Z,83.22
2022-11-21T23:09:56.720Z,82.85
2022-11-21T23:15:00.668Z,82.96
2022-11-21T23:20:03.402Z,82.81
2022-11-21T23:25:08.274Z,82.66
2022-11-21T23:30:11.617Z,82.78
2022-11-21T23:35:14.467Z,82.75
2022-11-21T23:40:18.872Z,82.61
2022-11-21T23:45:21.648Z,82.65
2022-11-21T23:50:24.451Z,82.59
2022-11-21T23:55:28.880Z,82.70
